createdAt,value
2023-05-01T00:00:00.320Z,11.43
2023-05-01T00:02:28.434Z,11.03
2023-05-01T00:04:56.765Z,11.00
2023-05-01T00:07:29.373Z,10.90
2023-05-01T00:09:58.121Z,10.67
2023-05-01T00:12:26.886Z,10.23
2023-05-01T00:14:55.747Z,10.17
2023-05-01T00:17:23.986Z,10.57
2023-05-01T00:19:53.543Z,9.60
2023-05-01T00:22:21.581Z,9.83
2023-05-01T00:24:50.844Z,10.23
2023-05-01T00:27:18.846Z,10.13
2023-05-01T00:29:46.945Z,9.40
2023-05-01T00:32:15.605Z,8.97
2023-05-01T00:34:46.119Z,10.40
2023-05-01T00:37:14.114Z,9.50
2023-05-01T00:39:42.100Z,9.80
2023-05-01T00:42:12.069Z,9.40
2023-05-01T00:44:40.247Z,9.40
2023-05-01T00:47:08.344Z,9.83
2023-05-01T00:49:36.721Z,9.37
2023-05-01T00:52:05.485Z,9.70
2023-05-01T00:54:33.588Z,9.13
2023-05-01T00:57:01.651Z,9.50
2023-05-01T00:59:31.178Z,10.27
2023-05-01T01:01:59.314Z,9.27
2023-05-01T01:04:31.525Z,8.83
2023-05-01T01:07:09.217Z,9.40
2023-05-01T01:09:46.416Z,8.87
2023-05-01T01:12:21.778Z,9.33
2023-05-01T01:14:58.481Z,9.60
2023-05-01T01:17:32.498Z,9.97
2023-05-01T01:20:21.775Z,10.33
2023-05-01T01:22:55.487Z,11.00
2023-05-01T01:26:04.621Z,11.07
2023-05-01T01:28:55.901Z,10.33
2023-05-01T01:31:33.424Z,10.23
2023-05-01T01:34:14.222Z,10.73
2023-05-01T01:36:48.593Z,11.80
2023-05-01T01:39:30.286Z,10.60
2023-05-01T01:42:01.107Z,10.67
2023-05-01T01:44:34.879Z,10.57
2023-05-01T01:47:07.210Z,10.50
2023-05-01T01:49:41.462Z,10.70
2023-05-01T01:52:14.160Z,10.63
2023-05-01T01:54:47.632Z,10.27
2023-05-01T01:57:19.813Z,9.23
2023-05-01T01:59:51.254Z,10.00
2023-05-01T02:02:21.341Z,10.17
2023-05-01T02:04:52.484Z,9.97
2023-05-01T02:07:21.855Z,9.93
2023-05-01T02:09:52.711Z,9.70
2023-05-01T02:12:22.575Z,9.73
2023-05-01T02:14:52.582Z,9.77
2023-05-01T02:17:21.597Z,9.03
2023-05-01T02:19:55.281Z,9.10
2023-05-01T02:22:25.755Z,9.20
2023-05-01T02:24:55.432Z,9.53
2023-05-01T02:27:27.615Z,11.83
2023-05-01T02:29:56.100Z,12.20
2023-05-01T02:32:24.351Z,11.97
2023-05-01T02:34:54.351Z,12.60
2023-05-01T02:37:22.773Z,12.20
2023-05-01T02:39:51.303Z,11.90
2023-05-01T02:42:23.128Z,12.10
2023-05-01T02:44:56.478Z,11.47
2023-05-01T02:47:27.337Z,16.83
2023-05-01T02:49:58.369Z,16.87
2023-05-01T02:52:28.510Z,14.93
2023-05-01T02:55:11.062Z,14.53
2023-05-01T02:57:39.252Z,14.30
2023-05-01T03:00:09.351Z,13.90
2023-05-01T03:02:37.660Z,13.70
2023-05-01T03:05:08.125Z,12.17
2023-05-01T03:07:36.265Z,11.13
2023-05-01T03:10:04.413Z,10.83
2023-05-01T03:12:32.399Z,9.90
2023-05-01T03:15:00.912Z,10.80
2023-05-01T03:17:29.160Z,10.70
2023-05-01T03:19:57.341Z,10.77
2023-05-01T03:22:29.776Z,10.13
2023-05-01T03:24:57.714Z,10.07
2023-05-01T03:27:25.924Z,10.30
2023-05-01T03:29:56.057Z,10.87
2023-05-01T03:32:25.965Z,10.70
2023-05-01T03:34:55.370Z,10.77
2023-05-01T03:37:23.422Z,10.47
2023-05-01T03:39:53.037Z,9.37
2023-05-01T03:42:41.166Z,10.37
2023-05-01T03:45:16.576Z,10.37
2023-05-01T03:47:44.583Z,10.47
2023-05-01T03:50:12.943Z,11.10
2023-05-01T03:52:43.092Z,10.90
2023-05-01T03:55:12.582Z,10.50
2023-05-01T03:57:43.985Z,10.30
2023-05-01T04:00:14.252Z,9.77
2023-05-01T04:02:46.493Z,10.00
2023-05-01T04:05:21.451Z,10.37
2023-05-01T04:07:54.281Z,10.43
2023-05-01T04:10:23.956Z,11.13
2023-05-01T04:12:57.772Z,10.70
2023-05-01T04:15:25.822Z,10.90
2023-05-01T04:17:55.849Z,11.17
2023-05-01T04:20:24.656Z,10.30
2023-05-01T04:22:52.625Z,10.63
2023-05-01T04:25:20.844Z,9.90
2023-05-01T04:27:53.160Z,11.20
2023-05-01T04:30:21.165Z,10.60
2023-05-01T04:32:49.254Z,10.23
2023-05-01T04:35:17.435Z,10.20
2023-05-01T04:37:46.193Z,11.30
2023-05-01T04:40:15.133Z,9.70
2023-05-01T04:42:44.056Z,9.40
2023-05-01T04:45:16.721Z,9.07
2023-05-01T04:47:45.112Z,7.63
2023-05-01T04:50:13.183Z,8.00
2023-05-01T04:52:41.487Z,7.20
2023-05-01T04:55:11.472Z,6.80
2023-05-01T04:57:48.221Z,7.27
2023-05-01T05:00:19.113Z,6.63
2023-05-01T05:02:54.855Z,6.07
2023-05-01T05:05:25.411Z,6.43
2023-05-01T05:07:54.049Z,6.40
2023-05-01T05:10:39.394Z,6.20
2023-05-01T05:13:25.819Z,6.07
2023-05-01T05:16:03.135Z,5.37
2023-05-01T05:18:31.422Z,5.53
2023-05-01T05:21:00.008Z,4.63
2023-05-01T05:23:28.470Z,4.60
2023-05-01T05:25:57.958Z,5.27
2023-05-01T05:28:26.261Z,4.83
2023-05-01T05:30:54.322Z,4.13
2023-05-01T05:33:25.270Z,4.70
2023-05-01T05:35:53.458Z,5.23
2023-05-01T05:38:26.064Z,5.27
2023-05-01T05:40:59.245Z,4.13
2023-05-01T05:43:28.215Z,4.40
2023-05-01T05:46:01.288Z,4.67
2023-05-01T05:48:32.300Z,4.80
2023-05-01T05:51:00.447Z,4.47
2023-05-01T05:53:28.445Z,4.60
2023-05-01T05:55:56.560Z,4.17
2023-05-01T05:58:24.720Z,4.93
2023-05-01T06:00:55.910Z,3.97
2023-05-01T06:03:24.529Z,4.33
2023-05-01T06:05:57.876Z,3.43
2023-05-01T06:08:25.869Z,3.70
2023-05-01T06:10:53.819Z,4.20
2023-05-01T06:13:22.136Z,4.27
2023-05-01T06:15:51.109Z,3.83
2023-05-01T06:18:19.468Z,3.90
2023-05-01T06:20:47.897Z,3.17
2023-05-01T06:23:18.952Z,3.57
2023-05-01T06:25:59.121Z,3.40
2023-05-01T06:28:27.204Z,3.67
2023-05-01T06:30:56.362Z,3.53
2023-05-01T06:33:26.229Z,3.30
2023-05-01T06:36:05.359Z,3.60
2023-05-01T06:38:34.688Z,3.20
2023-05-01T06:41:03.194Z,3.70
2023-05-01T06:43:31.516Z,3.07
2023-05-01T06:45:59.596Z,3.33
2023-05-01T06:48:27.644Z,4.43
2023-05-01T06:50:57.041Z,3.43
2023-05-01T06:53:25.436Z,3.60
2023-05-01T06:55:54.886Z,3.43
2023-05-01T06:58:24.429Z,3.30
2023-05-01T07:00:54.913Z,3.10
2023-05-01T07:03:23.168Z,3.13
2023-05-01T07:05:51.211Z,3.33
2023-05-01T07:08:19.632Z,2.90
2023-05-01T07:10:47.769Z,3.23
2023-05-01T07:13:22.766Z,3.77
2023-05-01T07:15:52.396Z,2.90
2023-05-01T07:18:22.484Z,2.97
2023-05-01T07:20:50.929Z,3.10
2023-05-01T07:23:18.910Z,3.30
2023-05-01T07:25:47.178Z,3.07
2023-05-01T07:28:18.056Z,3.37
2023-05-01T07:30:46.075Z,3.03
2023-05-01T07:33:18.326Z,3.20
2023-05-01T07:35:46.526Z,3.50
2023-05-01T07:38:16.412Z,2.80
2023-05-01T07:40:44.367Z,2.70
2023-05-01T07:43:12.386Z,2.77
2023-05-01T07:45:42.937Z,2.80
2023-05-01T07:48:11.467Z,2.37
2023-05-01T07:50:40.534Z,2.70
2023-05-01T07:53:08.465Z,2.77
2023-05-01T07:55:37.913Z,2.70
2023-05-01T07:58:06.412Z,2.50
2023-05-01T08:00:34.551Z,2.20
2023-05-01T08:03:07.551Z,2.40
2023-05-01T08:05:36.008Z,2.13
2023-05-01T08:08:04.266Z,2.30
2023-05-01T08:10:32.204Z,2.20
2023-05-01T08:13:00.429Z,2.37
2023-05-01T08:15:28.553Z,2.40
2023-05-01T08:17:56.610Z,2.30
2023-05-01T08:20:26.101Z,2.37
2023-05-01T08:23:02.917Z,2.47
2023-05-01T08:25:34.028Z,2.27
2023-05-01T08:28:02.000Z,3.10
2023-05-01T08:30:31.686Z,2.33
2023-05-01T08:32:59.684Z,2.20
2023-05-01T08:35:30.888Z,2.23
2023-05-01T08:37:59.398Z,2.40
2023-05-01T08:40:29.364Z,2.60
2023-05-01T08:42:58.251Z,2.20
2023-05-01T08:45:29.245Z,2.40
2023-05-01T08:48:03.033Z,2.33
2023-05-01T08:50:34.947Z,2.30
2023-05-01T08:53:04.459Z,2.30
2023-05-01T08:55:35.280Z,2.40
2023-05-01T08:58:05.644Z,2.50
2023-05-01T09:00:36.447Z,2.50
2023-05-01T09:03:06.726Z,2.53
2023-05-01T09:05:36.852Z,2.50
2023-05-01T09:08:05.108Z,2.53
2023-05-01T09:10:34.966Z,1.97
2023-05-01T09:13:07.116Z,2.50
2023-05-01T09:15:35.256Z,2.50
2023-05-01T09:18:04.262Z,2.30
2023-05-01T09:20:33.597Z,2.43
2023-05-01T09:23:02.930Z,2.47
2023-05-01T09:25:31.331Z,2.30
2023-05-01T09:27:59.457Z,2.37
2023-05-01T09:30:35.141Z,2.50
2023-05-01T09:33:07.866Z,2.60
2023-05-01T09:35:50.504Z,2.23
2023-05-01T09:38:21.409Z,2.03
2023-05-01T09:40:49.563Z,1.93
2023-05-01T09:43:27.491Z,2.17
2023-05-01T09:46:07.382Z,2.70
2023-05-01T09:48:36.150Z,2.00
2023-05-01T09:51:21.922Z,2.40
2023-05-01T09:53:52.276Z,2.23
2023-05-01T09:56:21.773Z,2.40
2023-05-01T09:58:51.444Z,2.60
2023-05-01T10:01:20.544Z,1.90
2023-05-01T10:03:55.787Z,2.50
2023-05-01T10:06:30.513Z,2.17
2023-05-01T10:09:00.111Z,2.00
2023-05-01T10:11:28.521Z,2.37
2023-05-01T10:14:09.681Z,2.33
2023-05-01T10:16:39.294Z,2.17
2023-05-01T10:19:08.095Z,2.10
2023-05-01T10:21:37.063Z,2.20
2023-05-01T10:24:09.757Z,1.97
2023-05-01T10:26:38.586Z,2.10
2023-05-01T10:29:07.203Z,1.97
2023-05-01T10:31:35.960Z,2.17
2023-05-01T10:34:08.507Z,2.40
2023-05-01T10:36:40.899Z,2.30
2023-05-01T10:39:33.585Z,2.10
2023-05-01T10:42:03.833Z,1.70
2023-05-01T10:44:32.845Z,2.10
2023-05-01T10:47:00.971Z,1.90
2023-05-01T10:50:02.366Z,1.90
2023-05-01T10:52:30.376Z,1.80
2023-05-01T10:55:33.521Z,2.10
2023-05-01T10:58:01.754Z,2.30
2023-05-01T11:00:30.054Z,1.77
2023-05-01T11:03:31.610Z,2.17
2023-05-01T11:06:06.827Z,1.70
2023-05-01T11:08:37.434Z,1.60
2023-05-01T11:11:42.765Z,1.80
2023-05-01T11:14:13.736Z,1.60
2023-05-01T11:16:42.795Z,1.97
2023-05-01T11:19:12.806Z,2.20
2023-05-01T11:21:42.012Z,1.80
2023-05-01T11:24:10.594Z,1.77
2023-05-01T11:26:42.979Z,2.00
2023-05-01T11:29:13.088Z,1.63
2023-05-01T11:31:41.320Z,2.60
2023-05-01T11:34:09.768Z,2.20
2023-05-01T11:36:49.468Z,2.00
2023-05-01T11:39:18.401Z,1.53
2023-05-01T11:41:47.008Z,1.50
2023-05-01T11:44:18.407Z,51.20
2023-05-01T11:46:46.376Z,4.20
2023-05-01T11:49:14.664Z,1.70
2023-05-01T11:51:42.774Z,1.60
2023-05-01T11:54:15.119Z,1.83
2023-05-01T11:56:43.912Z,1.80
2023-05-01T11:59:13.145Z,1.67
2023-05-01T12:01:44.398Z,1.70
2023-05-01T12:04:13.907Z,1.60
2023-05-01T12:06:45.628Z,1.57
2023-05-01T12:09:18.727Z,1.90
2023-05-01T12:11:47.525Z,1.73
2023-05-01T12:14:16.447Z,1.70
2023-05-01T12:16:46.802Z,2.47
2023-05-01T12:19:16.104Z,2.20
2023-05-01T12:21:44.266Z,1.83
2023-05-01T12:24:15.019Z,1.40
2023-05-01T12:26:43.449Z,1.60
2023-05-01T12:29:12.118Z,1.67
2023-05-01T12:31:49.900Z,2.10
2023-05-01T12:34:18.280Z,1.73
2023-05-01T12:36:54.814Z,2.15
2023-05-01T12:39:23.477Z,1.70
2023-05-01T12:41:52.877Z,1.90
2023-05-01T12:44:23.593Z,2.38
2023-05-01T12:46:57.451Z,1.73
2023-05-01T12:49:26.581Z,1.70
2023-05-01T12:51:55.911Z,1.60
2023-05-01T12:54:25.840Z,1.83
2023-05-01T12:56:54.232Z,2.70
2023-05-01T12:59:23.929Z,1.83
2023-05-01T13:02:00.852Z,1.75
2023-05-01T13:04:29.637Z,2.40
2023-05-01T13:06:58.567Z,2.07
2023-05-01T13:09:28.078Z,1.80
2023-05-01T13:12:00.508Z,2.50
2023-05-01T13:14:29.405Z,1.90
2023-05-01T13:16:59.032Z,1.88
2023-05-01T13:19:28.703Z,1.90
2023-05-01T13:21:58.088Z,1.80
2023-05-01T13:24:36.635Z,1.42
2023-05-01T13:27:05.953Z,1.67
2023-05-01T13:29:34.410Z,1.80
2023-05-01T13:32:05.727Z,1.63
2023-05-01T13:34:35.218Z,2.00
2023-05-01T13:37:03.887Z,2.33
2023-05-01T13:39:31.792Z,2.08
2023-05-01T13:41:59.942Z,3.13
2023-05-01T13:44:29.136Z,2.42
2023-05-01T13:46:57.116Z,2.25
2023-05-01T13:49:26.962Z,1.80
2023-05-01T13:51:55.544Z,2.30
2023-05-01T13:54:23.592Z,2.40
2023-05-01T13:56:52.445Z,2.50
2023-05-01T13:59:20.462Z,2.67
2023-05-01T14:01:48.724Z,5.03
2023-05-01T14:04:21.134Z,2.08
2023-05-01T14:06:50.692Z,1.77
2023-05-01T14:09:19.530Z,2.10
2023-05-01T14:11:49.226Z,2.63
2023-05-01T14:14:18.262Z,2.90
2023-05-01T14:16:48.916Z,2.05
2023-05-01T14:19:18.282Z,2.17
2023-05-01T14:21:46.869Z,1.90
2023-05-01T14:24:18.328Z,34.83
2023-05-01T14:26:49.204Z,4.10
2023-05-01T14:29:23.966Z,2.53
2023-05-01T14:31:52.657Z,2.30
2023-05-01T14:34:21.484Z,2.70
2023-05-01T14:36:49.646Z,3.28
2023-05-01T14:39:20.118Z,1.70
2023-05-01T14:41:49.041Z,2.10
2023-05-01T14:44:20.782Z,1.60
2023-05-01T14:46:51.613Z,1.77
2023-05-01T14:49:21.709Z,1.70
2023-05-01T14:51:50.158Z,1.70
2023-05-01T14:54:19.813Z,2.72
2023-05-01T14:56:48.963Z,2.38
2023-05-01T14:59:17.185Z,1.80
2023-05-01T15:01:45.180Z,1.98
2023-05-01T15:04:14.103Z,1.83
2023-05-01T15:06:42.305Z,1.80
2023-05-01T15:09:10.405Z,2.00
2023-05-01T15:11:39.726Z,2.30
2023-05-01T15:14:07.698Z,1.70
2023-05-01T15:16:35.935Z,1.80
2023-05-01T15:19:04.624Z,3.10
2023-05-01T15:21:33.249Z,3.17
2023-05-01T15:24:01.673Z,1.67
2023-05-01T15:26:29.598Z,1.55
2023-05-01T15:28:58.893Z,1.63
2023-05-01T15:31:26.888Z,1.77
2023-05-01T15:33:54.998Z,1.63
2023-05-01T15:36:22.924Z,1.50
2023-05-01T15:38:50.843Z,1.60
2023-05-01T15:41:19.246Z,1.55
2023-05-01T15:43:47.762Z,1.38
2023-05-01T15:46:18.247Z,1.50
2023-05-01T15:48:46.390Z,1.65
2023-05-01T15:51:14.360Z,1.80
2023-05-01T15:53:42.469Z,1.65
2023-05-01T15:56:10.683Z,1.95
2023-05-01T15:58:38.679Z,1.50
2023-05-01T16:01:07.745Z,1.88
2023-05-01T16:03:47.752Z,1.75
2023-05-01T16:06:16.966Z,1.70
2023-05-01T16:08:45.176Z,1.67
2023-05-01T16:11:13.581Z,1.70
2023-05-01T16:13:43.366Z,1.70
2023-05-01T16:16:14.337Z,2.37
2023-05-01T16:18:44.018Z,2.20
2023-05-01T16:21:12.451Z,2.00
2023-05-01T16:23:40.718Z,1.93
2023-05-01T16:26:08.737Z,2.03
2023-05-01T16:28:37.311Z,1.77
2023-05-01T16:31:15.984Z,2.10
2023-05-01T16:33:56.628Z,2.47
2023-05-01T16:36:24.855Z,1.97
2023-05-01T16:38:53.983Z,1.97
2023-05-01T16:41:23.102Z,2.20
2023-05-01T16:43:51.402Z,1.83
2023-05-01T16:46:19.605Z,1.80
2023-05-01T16:48:47.711Z,2.33
2023-05-01T16:51:17.104Z,2.30
2023-05-01T16:53:45.049Z,2.30
2023-05-01T16:56:13.246Z,2.00
2023-05-01T16:58:41.492Z,2.30
2023-05-01T17:01:09.580Z,2.40
2023-05-01T17:03:38.216Z,2.37
2023-05-01T17:06:06.834Z,2.40
2023-05-01T17:08:36.256Z,2.07
2023-05-01T17:11:06.886Z,2.77
2023-05-01T17:13:34.849Z,2.70
2023-05-01T17:16:03.039Z,2.33
2023-05-01T17:18:31.054Z,2.50
2023-05-01T17:20:59.112Z,2.47
2023-05-01T17:23:28.063Z,2.43
2023-05-01T17:25:57.428Z,2.93
2023-05-01T17:28:25.763Z,2.90
2023-05-01T17:30:53.710Z,3.13
2023-05-01T17:33:21.796Z,3.53
2023-05-01T17:35:50.064Z,3.67
2023-05-01T17:38:18.149Z,3.53
2023-05-01T17:40:46.246Z,3.73
2023-05-01T17:43:15.649Z,3.60
2023-05-01T17:45:45.462Z,3.37
2023-05-01T17:48:14.046Z,3.43
2023-05-01T17:50:42.334Z,3.67
2023-05-01T17:53:10.836Z,3.97
2023-05-01T17:55:40.066Z,3.80
2023-05-01T17:58:08.036Z,4.30
2023-05-01T18:00:37.348Z,4.80
2023-05-01T18:03:06.023Z,5.37
2023-05-01T18:05:34.110Z,5.13
2023-05-01T18:08:02.193Z,4.10
2023-05-01T18:10:31.240Z,3.20
2023-05-01T18:12:59.538Z,3.40
2023-05-01T18:15:27.751Z,3.10
2023-05-01T18:17:57.360Z,3.03
2023-05-01T18:20:25.512Z,3.03
2023-05-01T18:22:54.384Z,3.07
2023-05-01T18:25:22.425Z,3.17
2023-05-01T18:27:50.775Z,2.97
2023-05-01T18:30:18.903Z,3.07
2023-05-01T18:32:48.804Z,3.37
2023-05-01T18:35:19.048Z,3.13
2023-05-01T18:37:47.336Z,3.23
2023-05-01T18:40:18.337Z,3.50
2023-05-01T18:42:46.370Z,3.87
2023-05-01T18:45:14.356Z,3.60
2023-05-01T18:47:42.689Z,3.30
2023-05-01T18:50:11.626Z,3.60
2023-05-01T18:52:42.199Z,3.60
2023-05-01T18:55:11.382Z,3.83
2023-05-01T18:57:41.754Z,4.07
2023-05-01T19:00:11.184Z,4.53
2023-05-01T19:02:39.319Z,4.27
2023-05-01T19:05:08.810Z,4.00
2023-05-01T19:07:36.982Z,4.33
2023-05-01T19:10:07.366Z,4.20
2023-05-01T19:12:35.404Z,3.77
2023-05-01T19:15:03.671Z,3.83
2023-05-01T19:17:31.953Z,3.57
2023-05-01T19:20:00.234Z,3.63
2023-05-01T19:22:28.492Z,3.70
2023-05-01T19:24:56.525Z,3.77
2023-05-01T19:27:26.057Z,3.70
2023-05-01T19:29:54.600Z,3.50
2023-05-01T19:32:22.978Z,3.67
2023-05-01T19:34:51.425Z,3.90
2023-05-01T19:37:19.900Z,3.90
2023-05-01T19:39:48.090Z,3.80
2023-05-01T19:42:16.532Z,4.67
2023-05-01T19:44:46.095Z,4.50
2023-05-01T19:47:14.426Z,4.73
2023-05-01T19:49:43.804Z,4.70
2023-05-01T19:52:11.992Z,4.70
2023-05-01T19:54:40.149Z,4.93
2023-05-01T19:57:08.323Z,5.40
2023-05-01T19:59:38.943Z,5.27
2023-05-01T20:02:08.423Z,5.00
2023-05-01T20:04:36.556Z,5.40
2023-05-01T20:07:04.828Z,5.23
2023-05-01T20:09:32.905Z,5.50
2023-05-01T20:12:01.402Z,4.97
2023-05-01T20:14:30.352Z,4.63
2023-05-01T20:16:59.292Z,4.43
2023-05-01T20:19:29.175Z,4.50
2023-05-01T20:21:57.130Z,3.97
2023-05-01T20:24:25.281Z,4.37
2023-05-01T20:26:53.912Z,4.00
2023-05-01T20:29:21.970Z,4.03
2023-05-01T20:31:51.361Z,3.90
2023-05-01T20:34:20.040Z,3.80
2023-05-01T20:36:49.375Z,4.03
2023-05-01T20:39:17.412Z,4.00
2023-05-01T20:41:45.531Z,3.83
2023-05-01T20:44:13.878Z,4.20
2023-05-01T20:46:43.219Z,4.20
2023-05-01T20:49:15.743Z,3.77
2023-05-01T20:51:44.118Z,3.80
2023-05-01T20:54:13.477Z,3.67
2023-05-01T20:56:41.687Z,3.90
2023-05-01T20:59:09.680Z,3.73
2023-05-01T21:01:37.743Z,4.13
2023-05-01T21:04:06.685Z,3.90
2023-05-01T21:06:34.816Z,3.93
2023-05-01T21:09:03.164Z,3.90
2023-05-01T21:11:32.508Z,3.63
2023-05-01T21:14:00.766Z,3.63
2023-05-01T21:16:29.241Z,4.30
2023-05-01T21:18:57.298Z,3.97
2023-05-01T21:21:26.375Z,4.13
2023-05-01T21:23:54.374Z,3.60
2023-05-01T21:26:22.924Z,3.90
2023-05-01T21:28:52.330Z,4.33
2023-05-01T21:31:20.376Z,3.70
2023-05-01T21:33:49.895Z,3.70
2023-05-01T21:36:19.028Z,4.20
2023-05-01T21:38:47.619Z,4.60
2023-05-01T21:41:16.261Z,4.50
2023-05-01T21:43:44.682Z,4.40
2023-05-01T21:46:17.809Z,4.40
2023-05-01T21:48:50.545Z,4.43
2023-05-01T21:51:19.100Z,4.33
2023-05-01T21:53:47.140Z,4.23
2023-05-01T21:56:15.540Z,3.60
2023-05-01T21:58:43.691Z,3.90
2023-05-01T22:01:14.686Z,3.50
2023-05-01T22:03:44.569Z,3.40
2023-05-01T22:06:12.737Z,3.97
2023-05-01T22:08:40.790Z,3.27
2023-05-01T22:11:08.785Z,4.00
2023-05-01T22:13:37.111Z,3.50
2023-05-01T22:16:05.363Z,3.40
2023-05-01T22:18:34.817Z,3.07
2023-05-01T22:21:03.420Z,3.70
2023-05-01T22:23:31.458Z,3.60
2023-05-01T22:26:00.787Z,3.77
2023-05-01T22:28:29.084Z,3.93
2023-05-01T22:30:57.148Z,4.10
2023-05-01T22:33:25.120Z,4.73
2023-05-01T22:35:54.363Z,4.83
2023-05-01T22:38:22.271Z,4.97
2023-05-01T22:40:50.304Z,4.37
2023-05-01T22:43:18.326Z,4.20
2023-05-01T22:45:46.971Z,4.10
2023-05-01T22:48:15.632Z,4.23
2023-05-01T22:50:43.798Z,4.93
2023-05-01T22:53:13.169Z,4.53
2023-05-01T22:55:41.108Z,4.37
2023-05-01T22:58:09.096Z,4.97
2023-05-01T23:00:37.062Z,4.33
2023-05-01T23:03:05.208Z,4.30
2023-05-01T23:05:33.262Z,4.23
2023-05-01T23:08:01.225Z,4.13
2023-05-01T23:10:32.290Z,4.40
2023-05-01T23:13:01.802Z,4.10
2023-05-01T23:15:29.883Z,3.93
2023-05-01T23:17:58.064Z,4.27
2023-05-01T23:20:26.210Z,4.07
2023-05-01T23:22:54.780Z,4.50
2023-05-01T23:25:26.347Z,4.20
2023-05-01T23:27:56.887Z,4.83
2023-05-01T23:30:25.010Z,4.60
2023-05-01T23:32:53.679Z,4.00
2023-05-01T23:35:24.663Z,3.83
2023-05-01T23:37:53.640Z,4.07
2023-05-01T23:40:22.047Z,4.30
2023-05-01T23:42:50.192Z,4.17
2023-05-01T23:45:20.412Z,4.10
2023-05-01T23:47:48.430Z,4.20
2023-05-01T23:50:16.466Z,4.00
2023-05-01T23:52:45.054Z,4.37
2023-05-01T23:55:13.106Z,4.07
2023-05-01T23:57:41.060Z,4.13
